Time;durP1;ratioP1;P1;durP2;ratioP2;P2;SDS_P1;SDS_P2;PMS_P1;PMS_P2;Temp;Humidity;BMP_temperature;BMP_pressure;BME280_temperature;BME280_humidity;BME280_pressure;Samples;Min_cycle;Max_cycle;Signal;HPM_P1;HPM_P2
2024/04/13 00:01:49;;;;;;;2.10;1.55;;;;;;;12.75;100.00;99644.81;6107496;19;20011;-74
2024/04/13 00:03:52;;;;;;;1.80;1.52;;;;;;;12.72;100.00;99643.53;6108652;19;20019;-74
2024/04/13 00:05:52;;;;;;;1.67;1.42;;;;;;;12.72;100.00;99639.97;6106375;19;20275;-74
2024/04/13 00:07:55;;;;;;;2.63;1.73;;;;;;;12.74;100.00;99648.72;6107406;19;20223;-74
2024/04/13 00:09:55;;;;;;;;;;;;;;;12.76;100.00;99651.97;6108166;19;20389;-74
2024/04/13 00:11:55;;;;;;;1.90;1.17;;;;;;;12.80;100.00;99639.75;6105254;19;19931;-74
2024/04/13 00:13:56;;;;;;;2.20;1.20;;;;;;;12.79;100.00;99637.34;6107064;19;20013;-74
2024/04/13 00:15:57;;;;;;;2.85;1.50;;;;;;;12.76;100.00;99638.88;6108511;19;20006;-74
2024/04/13 00:18:00;;;;;;;2.22;1.33;;;;;;;12.79;100.00;99649.25;6106582;19;20079;-74
2024/04/13 00:20:01;;;;;;;2.42;1.40;;;;;;;12.77;100.00;99648.00;6107013;19;20010;-74
2024/04/13 00:22:02;;;;;;;1.92;1.45;;;;;;;12.83;100.00;99658.47;6106058;19;20652;-74
2024/04/13 00:24:02;;;;;;;1.75;1.35;;;;;;;12.80;100.00;99659.19;6106776;19;20015;-75
2024/04/13 00:26:03;;;;;;;2.15;1.95;;;;;;;12.76;100.00;99655.53;6106336;19;20011;-74
2024/04/13 00:28:05;;;;;;;2.30;1.48;;;;;;;12.72;100.00;99653.84;6105294;19;20010;-74
2024/04/13 00:30:06;;;;;;;2.08;1.38;;;;;;;12.66;100.00;99653.34;6106742;19;20009;-74
2024/04/13 00:32:08;;;;;;;2.03;1.40;;;;;;;12.62;100.00;99664.34;6107178;19;20010;-74
2024/04/13 00:34:08;;;;;;;1.60;1.38;;;;;;;12.59;100.00;99658.72;6105872;19;20013;-74
2024/04/13 00:36:08;;;;;;;2.65;1.67;;;;;;;12.61;100.00;99653.63;6106552;19;20010;-74
2024/04/13 00:38:09;;;;;;;2.15;1.63;;;;;;;12.59;100.00;99651.22;6105999;19;20007;-74
2024/04/13 00:40:09;;;;;;;2.15;1.55;;;;;;;12.59;100.00;99659.53;6105934;19;20006;-74
2024/04/13 00:42:09;;;;;;;2.10;1.55;;;;;;;12.56;100.00;99657.47;6106109;19;20003;-74
2024/04/13 00:44:10;;;;;;;3.85;1.85;;;;;;;12.56;100.00;99653.88;6106960;19;20353;-75
2024/04/13 00:46:16;;;;;;;2.25;1.40;;;;;;;12.56;100.00;99643.59;6107346;19;20014;-75
2024/04/13 00:48:24;;;;;;;1.65;1.45;;;;;;;12.57;100.00;99647.97;6106832;19;20077;-74
2024/04/13 00:50:24;;;;;;;1.85;1.40;;;;;;;12.61;100.00;99640.53;6106761;19;20023;-74
2024/04/13 00:52:26;;;;;;;2.20;1.67;;;;;;;12.69;100.00;99646.25;6107483;19;20335;-75
2024/04/13 00:54:27;;;;;;;1.92;1.42;;;;;;;12.67;100.00;99645.81;6105374;19;20007;-74
2024/04/13 00:56:28;;;;;;;3.30;1.60;;;;;;;12.67;100.00;99637.47;6107818;19;20006;-74
2024/04/13 00:58:30;;;;;;;1.98;1.38;;;;;;;12.71;100.00;99635.56;6105687;19;20011;-74
2024/04/13 01:00:33;;;;;;;2.13;1.50;;;;;;;12.69;100.00;99632.38;6105315;19;20007;-74
2024/04/13 01:02:37;;;;;;;2.83;1.60;;;;;;;12.63;100.00;99638.19;6106808;19;20002;-74
2024/04/13 01:04:37;;;;;;;4.70;1.40;;;;;;;12.65;100.00;99644.19;6107393;19;20029;-74
2024/04/13 01:06:38;;;;;;;3.42;1.70;;;;;;;12.68;100.00;99647.41;6106468;19;20090;-74
2024/04/13 01:08:40;;;;;;;2.05;1.42;;;;;;;12.67;100.00;99638.28;6104315;19;20003;-74
2024/04/13 01:10:41;;;;;;;2.53;1.60;;;;;;;12.68;100.00;99644.66;6105833;19;20006;-74
2024/04/13 01:12:43;;;;;;;3.15;1.50;;;;;;;12.67;100.00;99641.06;6106520;19;20010;-74
2024/04/13 01:14:44;;;;;;;3.13;1.73;;;;;;;12.65;100.00;99646.16;6106148;19;20002;-74
2024/04/13 01:16:44;;;;;;;2.63;1.73;;;;;;;12.67;100.00;99643.84;6107573;19;20011;-74
2024/04/13 01:18:45;;;;;;;3.80;1.60;;;;;;;12.69;100.00;99637.91;6109833;19;20109;-74
2024/04/13 01:20:45;;;;;;;2.13;1.45;;;;;;;12.70;100.00;99643.09;6110259;19;20384;-74
2024/04/13 01:22:50;;;;;;;2.08;1.58;;;;;;;12.73;100.00;99638.78;6112244;19;20006;-74
2024/04/13 01:24:51;;;;;;;1.60;1.50;;;;;;;12.74;100.00;99632.88;6111914;19;20003;-74
2024/04/13 01:26:52;;;;;;;2.65;1.63;;;;;;;12.72;100.00;99632.44;6111896;19;20032;-74
2024/04/13 01:28:52;;;;;;;2.72;1.52;;;;;;;12.74;100.00;99638.41;6109517;19;20026;-74
2024/04/13 01:30:53;;;;;;;2.33;1.58;;;;;;;12.74;100.00;99637.59;6110975;19;20136;-74
2024/04/13 01:32:53;;;;;;;2.88;1.50;;;;;;;12.71;100.00;99641.94;6111042;19;20058;-74
2024/04/13 01:34:54;;;;;;;2.42;1.67;;;;;;;12.67;100.00;99626.38;6111836;19;20040;-74
2024/04/13 01:36:54;;;;;;;2.58;1.70;;;;;;;12.69;100.00;99630.38;6111155;19;20002;-74
2024/04/13 01:38:54;;;;;;;2.95;1.77;;;;;;;12.69;100.00;99633.16;6110513;19;20492;-74
2024/04/13 01:40:54;;;;;;;1.85;1.48;;;;;;;12.72;100.00;99632.44;6101005;19;20003;-74
2024/04/13 01:42:55;;;;;;;1.83;1.52;;;;;;;12.71;100.00;99636.38;6110283;19;20385;-74
2024/04/13 01:44:55;;;;;;;1.83;1.65;;;;;;;12.74;100.00;99626.50;6110969;19;20031;-74
2024/04/13 01:46:58;;;;;;;2.17;1.67;;;;;;;12.74;100.00;99627.31;6108861;19;20006;-74
2024/04/13 01:49:01;;;;;;;2.67;1.98;;;;;;;12.72;100.00;99628.84;6109210;19;20062;-74
2024/04/13 01:51:01;;;;;;;2.80;1.73;;;;;;;12.71;100.00;99624.47;6110304;19;20009;-74
2024/04/13 01:53:02;;;;;;;2.35;1.80;;;;;;;12.74;100.00;99626.50;6110695;19;20463;-74
2024/04/13 01:55:02;;;;;;;4.93;2.53;;;;;;;12.70;100.00;99620.88;6110932;19;20013;-74
2024/04/13 01:57:03;;;;;;;3.20;1.73;;;;;;;12.64;100.00;99622.34;6110495;19;20333;-75
2024/04/13 01:59:03;;;;;;;4.82;2.00;;;;;;;12.59;100.00;99623.44;6108261;19;20029;-74
2024/04/13 02:01:05;;;;;;;3.55;2.08;;;;;;;12.54;100.00;99617.38;6109250;19;19999;-74
2024/04/13 02:03:06;;;;;;;5.18;2.33;;;;;;;12.48;100.00;99619.63;6109163;19;20026;-74
2024/04/13 02:05:06;;;;;;;4.03;2.08;;;;;;;12.41;100.00;99619.44;6110653;19;20003;-74
2024/04/13 02:07:07;;;;;;;6.45;2.40;;;;;;;12.36;100.00;99625.31;6110459;19;20262;-74
2024/04/13 02:09:07;;;;;;;2.47;2.08;;;;;;;12.28;100.00;99618.78;6107089;19;20022;-74
2024/04/13 02:11:07;;;;;;;3.92;2.20;;;;;;;12.26;100.00;99620.31;6109835;19;20459;-74
2024/04/13 02:13:08;;;;;;;4.68;2.30;;;;;;;12.17;100.00;99614.97;6108929;19;20002;-74
2024/04/13 02:15:09;;;;;;;2.28;2.03;;;;;;;12.09;100.00;99615.97;6109835;19;20353;-75
2024/04/13 02:17:09;;;;;;;3.83;2.30;;;;;;;12.02;100.00;99611.06;6109859;19;20007;-74
2024/04/13 02:19:12;;;;;;;3.65;2.05;;;;;;;11.96;100.00;99606.13;6108434;19;20362;-74
2024/04/13 02:21:12;;;;;;;5.35;2.17;;;;;;;11.89;100.00;99609.53;6109051;19;20473;-74
2024/04/13 02:23:13;;;;;;;5.03;2.20;;;;;;;11.87;100.00;99606.31;6110088;19;20010;-74
2024/04/13 02:25:14;;;;;;;6.30;2.42;;;;;;;11.80;100.00;99595.06;6110007;19;20383;-74
2024/04/13 02:27:14;;;;;;;3.58;2.40;;;;;;;11.80;100.00;99609.72;6109008;19;20003;-74
2024/04/13 02:29:15;;;;;;;4.88;2.80;;;;;;;11.76;100.00;99596.94;6109451;19;20006;-74
2024/04/13 02:31:17;;;;;;;5.43;2.40;;;;;;;11.74;100.00;99602.81;6110282;19;20263;-74
2024/04/13 02:33:17;;;;;;;3.00;2.22;;;;;;;11.70;100.00;99593.59;6110947;19;20450;-74
2024/04/13 02:35:17;;;;;;;3.28;2.63;;;;;;;11.73;100.00;99592.88;6109951;19;20017;-74
2024/04/13 02:37:17;;;;;;;4.35;2.90;;;;;;;11.85;100.00;99599.53;6110077;19;20003;-74
2024/04/13 02:39:18;;;;;;;7.15;2.80;;;;;;;11.94;100.00;99584.31;6108420;19;20018;-74
2024/04/13 02:41:19;;;;;;;5.63;3.08;;;;;;;12.02;100.00;99591.63;6102997;19;20350;-74
2024/04/13 02:43:20;;;;;;;3.33;2.47;;;;;;;12.02;100.00;99588.88;6103076;19;20836;-74
2024/04/13 02:45:20;;;;;;;4.20;2.80;;;;;;;12.05;100.00;99596.44;6104008;19;20070;-74
2024/04/13 02:47:21;;;;;;;5.15;3.60;;;;;;;12.08;100.00;99594.91;6103003;19;20044;-74
2024/04/13 02:49:21;;;;;;;4.82;2.85;;;;;;;12.04;100.00;99592.06;6102703;19;20014;-74
2024/04/13 02:51:22;;;;;;;4.75;3.60;;;;;;;11.98;100.00;99592.72;6103390;19;20025;-74
2024/04/13 02:53:22;;;;;;;4.05;3.03;;;;;;;11.88;100.00;99590.50;6103300;19;20550;-74
2024/04/13 02:55:23;;;;;;;3.85;2.90;;;;;;;11.81;100.00;99594.69;6103324;19;20017;-74
2024/04/13 02:57:26;;;;;;;4.38;2.70;;;;;;;11.78;100.00;99592.63;6103304;19;20049;-75
2024/04/13 02:59:28;;;;;;;4.85;3.00;;;;;;;11.72;100.00;99593.25;6102399;19;20704;-74
2024/04/13 03:01:28;;;;;;;4.20;3.13;;;;;;;11.66;100.00;99589.94;6103537;19;20007;-74
2024/04/13 03:03:29;;;;;;;6.30;3.33;;;;;;;11.60;100.00;99591.38;6102881;19;20039;-74
2024/04/13 03:05:30;;;;;;;4.55;3.15;;;;;;;11.53;100.00;99583.69;6103214;19;20010;-75
2024/04/13 03:07:30;;;;;;;4.35;3.15;;;;;;;11.50;100.00;99586.34;6102352;19;20531;-74
2024/04/13 03:09:31;;;;;;;5.55;3.20;;;;;;;11.49;100.00;99581.97;6101496;19;20014;-74
2024/04/13 03:11:32;;;;;;;7.88;3.88;;;;;;;11.45;100.00;99576.34;6100693;19;20003;-74
2024/04/13 03:13:32;;;;;;;11.00;3.90;;;;;;;11.45;100.00;99579.13;6102252;19;20011;-74
2024/04/13 03:15:33;;;;;;;6.32;3.50;;;;;;;11.45;100.00;99587.44;6102015;19;20349;-74
2024/04/13 03:17:33;;;;;;;5.55;3.45;;;;;;;11.44;100.00;99588.59;6100927;19;20006;-74
2024/04/13 03:19:33;;;;;;;7.20;3.50;;;;;;;11.39;100.00;99588.84;6100413;19;20025;-74
2024/04/13 03:21:35;;;;;;;7.13;3.38;;;;;;;11.36;100.00;99594.31;6101912;19;20033;-74
2024/04/13 03:23:37;;;;;;;5.63;3.63;;;;;;;11.35;100.00;99587.16;6100166;19;20021;-74
2024/04/13 03:25:38;;;;;;;6.10;3.85;;;;;;;11.38;100.00;99590.03;6102675;19;20006;-74
2024/04/13 03:27:38;;;;;;;6.95;4.43;;;;;;;11.47;100.00;99587.06;6100618;19;20017;-74
2024/04/13 03:29:39;;;;;;;7.60;4.75;;;;;;;11.46;100.00;99586.28;6101383;19;20014;-74
2024/04/13 03:31:39;;;;;;;7.15;4.00;;;;;;;11.47;100.00;99592.63;6101887;19;20006;-74
2024/04/13 03:33:39;;;;;;;7.70;3.70;;;;;;;11.43;100.00;99575.09;6102050;19;20331;-74
2024/04/13 03:35:40;;;;;;;5.70;3.60;;;;;;;11.41;100.00;99574.63;6101755;19;20006;-74
2024/04/13 03:37:40;;;;;;;6.20;3.70;;;;;;;11.36;100.00;99572.97;6101042;19;19998;-74
2024/04/13 03:39:40;;;;;;;5.68;3.75;;;;;;;11.38;100.00;99570.63;6097511;19;20010;-74
2024/04/13 03:41:41;;;;;;;5.78;3.72;;;;;;;11.39;100.00;99565.88;6109614;19;20011;-74
2024/04/13 03:43:41;;;;;;;5.25;3.80;;;;;;;11.43;100.00;99562.06;6108695;19;20086;-74
2024/04/13 03:45:42;;;;;;;4.72;3.40;;;;;;;11.40;100.00;99571.06;6108344;19;20028;-74
2024/04/13 03:47:43;;;;;;;10.60;4.30;;;;;;;11.41;100.00;99571.88;6108466;19;20418;-74
2024/04/13 03:49:43;;;;;;;6.07;4.05;;;;;;;11.40;100.00;99567.50;6106287;19;20006;-74
2024/04/13 03:51:44;;;;;;;5.72;3.78;;;;;;;11.33;100.00;99564.53;6108219;19;20094;-74
2024/04/13 03:53:44;;;;;;;6.40;3.65;;;;;;;11.33;100.00;99576.41;6109262;19;20074;-74
2024/04/13 03:55:45;;;;;;;6.70;3.78;;;;;;;11.30;100.00;99571.59;6108509;19;20011;-74
2024/04/13 03:57:45;;;;;;;8.65;4.75;;;;;;;11.27;100.00;99558.47;6107845;19;20062;-74
2024/04/13 03:59:46;;;;;;;6.88;3.72;;;;;;;11.26;100.00;99562.41;6106854;19;20004;-74
2024/04/13 04:01:46;;;;;;;5.45;4.18;;;;;;;11.28;100.00;99559.28;6108397;19;20011;-74
2024/04/13 04:03:46;;;;;;;6.45;4.18;;;;;;;11.27;100.00;99558.47;6108237;19;20070;-74
2024/04/13 04:05:50;;;;;;;6.05;3.63;;;;;;;11.23;100.00;99558.38;6107248;19;20007;-75
2024/04/13 04:07:51;;;;;;;7.72;4.10;;;;;;;11.26;100.00;99562.41;6107005;19;20306;-74
2024/04/13 04:09:51;;;;;;;6.03;3.67;;;;;;;11.25;100.00;99569.09;6107822;19;20014;-74
2024/04/13 04:11:51;;;;;;;5.82;3.80;;;;;;;11.15;100.00;99564.06;6107248;19;20006;-74
2024/04/13 04:13:52;;;;;;;6.90;3.83;;;;;;;11.11;100.00;99560.41;6107251;19;20109;-74
2024/04/13 04:15:52;;;;;;;6.53;4.15;;;;;;;11.11;100.00;99564.00;6108056;19;20405;-74
2024/04/13 04:17:53;;;;;;;6.95;3.55;;;;;;;11.08;100.00;99563.88;6107501;19;20014;-74
2024/04/13 04:19:53;;;;;;;6.40;3.83;;;;;;;11.00;100.00;99560.13;6106640;19;20026;-75
2024/04/13 04:21:54;;;;;;;5.95;3.53;;;;;;;10.94;100.00;99564.31;6106048;19;20070;-75
2024/04/13 04:23:54;;;;;;;5.95;3.50;;;;;;;10.91;100.00;99565.81;6108083;19;20023;-74
2024/04/13 04:25:55;;;;;;;5.80;3.75;;;;;;;10.89;100.00;99553.50;6107493;19;20003;-75
2024/04/13 04:27:55;;;;;;;4.43;3.80;;;;;;;10.84;100.00;99560.09;6106293;19;20010;-74
2024/04/13 04:29:56;;;;;;;6.88;4.20;;;;;;;10.78;100.00;99555.16;6105891;19;20455;-74
2024/04/13 04:31:56;;;;;;;5.88;5.05;;;;;;;10.76;100.00;99560.22;6107519;19;20009;-74
2024/04/13 04:33:56;;;;;;;7.15;4.55;;;;;;;10.72;100.00;99564.88;6106471;19;20286;-74
2024/04/13 04:35:57;;;;;;;7.43;4.22;;;;;;;10.66;100.00;99562.34;6108079;19;20469;-74
2024/04/13 04:37:57;;;;;;;15.23;5.15;;;;;;;10.67;100.00;99563.16;6106426;19;20044;-74
2024/04/13 04:39:57;;;;;;;7.00;4.38;;;;;;;10.73;100.00;99563.72;6106731;19;20338;-74
2024/04/13 04:41:58;;;;;;;7.40;4.35;;;;;;;10.72;100.00;99562.91;6107164;19;20074;-74
2024/04/13 04:43:58;;;;;;;7.25;4.22;;;;;;;10.71;100.00;99566.84;6107353;19;19999;-74
2024/04/13 04:45:58;;;;;;;7.18;4.70;;;;;;;10.73;100.00;99572.03;6106114;19;20007;-74
2024/04/13 04:47:59;;;;;;;9.80;4.47;;;;;;;10.76;100.00;99568.53;6107021;19;20026;-75
2024/04/13 04:50:00;;;;;;;6.30;4.43;;;;;;;10.76;100.00;99563.84;6106773;19;20067;-74
2024/04/13 04:52:00;;;;;;;5.53;4.30;;;;;;;10.72;100.00;99562.91;6110741;19;20026;-75
2024/04/13 04:54:00;;;;;;;8.07;4.82;;;;;;;10.74;100.00;99577.19;6111602;19;20010;-74
2024/04/13 04:56:00;;;;;;;5.93;4.72;;;;;;;10.73;100.00;99570.06;6112074;19;20013;-74
2024/04/13 04:58:01;;;;;;;6.70;4.40;;;;;;;10.66;100.00;99567.88;6111061;19;20035;-74
2024/04/13 05:00:01;;;;;;;28.77;5.18;;;;;;;10.65;100.00;99569.06;6112654;19;20011;-74
2024/04/13 05:02:01;;;;;;;7.97;5.10;;;;;;;10.67;100.00;99579.75;6111764;19;20034;-74
2024/04/13 05:04:02;;;;;;;8.25;4.15;;;;;;;10.68;100.00;99581.41;6112692;19;20010;-74
2024/04/13 05:06:02;;;;;;;7.97;4.63;;;;;;;10.69;100.00;99597.66;6109703;19;20333;-74
2024/04/13 05:08:03;;;;;;;8.57;4.93;;;;;;;10.68;100.00;99586.94;6111110;19;20534;-74
2024/04/13 05:10:04;;;;;;;8.88;5.03;;;;;;;10.68;100.00;99592.47;6110977;19;20313;-74
2024/04/13 05:12:05;;;;;;;6.45;4.40;;;;;;;10.66;100.00;99592.00;6112522;19;20837;-75
2024/04/13 05:14:07;;;;;;;5.45;4.50;;;;;;;10.65;100.00;99599.50;6111593;19;20011;-74
2024/04/13 05:16:08;;;;;;;7.30;5.37;;;;;;;10.65;100.00;99587.63;6111201;19;20390;-74
2024/04/13 05:18:08;;;;;;;10.38;5.65;;;;;;;10.68;100.00;99589.69;6111456;19;20003;-74
2024/04/13 05:20:09;;;;;;;9.60;4.78;;;;;;;10.72;100.00;99598.09;6110799;19;20020;-74
2024/04/13 05:22:09;;;;;;;7.68;5.38;;;;;;;10.75;100.00;99591.84;6111697;19;20097;-74
2024/04/13 05:24:09;;;;;;;12.13;5.43;;;;;;;10.81;100.00;99595.97;6113230;19;20346;-74
2024/04/13 05:26:10;;;;;;;9.05;4.57;;;;;;;10.84;100.00;99603.56;6109986;19;20002;-74
2024/04/13 05:28:10;;;;;;;18.23;5.63;;;;;;;10.88;100.00;99596.19;6110194;19;20010;-74
2024/04/13 05:30:10;;;;;;;7.53;5.00;;;;;;;10.89;100.00;99598.59;6111069;19;20487;-74
2024/04/13 05:32:12;;;;;;;6.78;4.68;;;;;;;10.95;100.00;99616.56;6111505;19;20010;-74
2024/04/13 05:34:12;;;;;;;11.65;4.57;;;;;;;11.00;100.00;99614.69;6076622;19;20086;-74
2024/04/13 05:36:12;;;;;;;9.55;5.10;;;;;;;11.03;100.00;99630.63;6111137;19;19998;-74
2024/04/13 05:38:13;;;;;;;6.88;4.60;;;;;;;11.04;100.00;99627.50;6111132;19;20491;-74
2024/04/13 05:40:15;;;;;;;9.93;5.00;;;;;;;11.22;100.00;99614.94;6110204;19;19998;-74
2024/04/13 05:42:15;;;;;;;7.88;4.30;;;;;;;11.29;100.00;99624.59;6111683;19;20319;-74
2024/04/13 05:44:15;;;;;;;7.00;5.00;;;;;;;11.29;100.00;99619.88;6111183;19;19999;-74
2024/04/13 05:46:16;;;;;;;8.13;4.25;;;;;;;11.27;100.00;99611.09;6111116;19;19999;-74
2024/04/13 05:48:16;;;;;;;6.22;4.05;;;;;;;11.28;100.00;99618.25;6109582;19;20454;-74
2024/04/13 05:50:16;;;;;;;7.53;4.25;;;;;;;11.29;100.00;99622.63;6111292;19;20006;-74
2024/04/13 05:52:17;;;;;;;4.45;3.83;;;;;;;11.35;100.00;99628.72;6111737;19;20680;-74
2024/04/13 05:54:17;;;;;;;6.55;4.18;;;;;;;11.40;100.00;99628.44;6110844;19;19995;-74
2024/04/13 05:56:17;;;;;;;8.27;4.65;;;;;;;11.45;100.00;99629.00;6110522;19;19999;-74
2024/04/13 05:58:19;;;;;;;7.38;4.40;;;;;;;11.50;100.00;99636.22;6111817;19;20013;-74
2024/04/13 06:00:19;;;;;;;8.17;4.57;;;;;;;11.60;100.00;99648.78;6109411;19;20070;-74
2024/04/13 06:02:25;;;;;;;7.43;4.13;;;;;;;11.67;100.00;99643.44;6109275;19;20602;-74
2024/04/13 06:04:26;;;;;;;6.10;4.45;;;;;;;11.77;100.00;99651.22;6111156;19;20014;-74
2024/04/13 06:06:26;;;;;;;10.10;5.10;;;;;;;11.85;100.00;99650.25;6112111;19;20014;-74
2024/04/13 06:08:27;;;;;;;6.20;4.28;;;;;;;11.93;100.00;99648.47;6110955;19;20082;-74
2024/04/13 06:10:27;;;;;;;5.78;4.50;;;;;;;12.06;100.00;99653.53;6111003;19;20463;-74
2024/04/13 06:12:27;;;;;;;8.98;4.70;;;;;;;12.17;100.00;99653.81;6111868;19;20045;-74
2024/04/13 06:14:28;;;;;;;8.00;4.43;;;;;;;12.27;100.00;99647.69;6111727;19;20017;-74
2024/04/13 06:16:28;;;;;;;5.55;4.40;;;;;;;12.37;100.00;99643.56;6110781;19;20105;-74
2024/04/13 06:18:28;;;;;;;6.25;4.50;;;;;;;12.47;100.00;99647.75;6110953;19;20493;-74
2024/04/13 06:20:29;;;;;;;7.57;4.40;;;;;;;12.65;100.00;99652.50;6109504;19;20006;-74
2024/04/13 06:22:29;;;;;;;8.55;5.22;;;;;;;12.78;100.00;99653.19;6111167;19;20007;-74
2024/04/13 06:24:29;;;;;;;8.48;5.03;;;;;;;13.06;100.00;99650.19;6111538;19;20018;-74
2024/04/13 06:26:30;;;;;;;7.22;5.32;;;;;;;13.22;100.00;99655.69;6111319;19;20332;-74
2024/04/13 06:28:30;;;;;;;7.10;4.63;;;;;;;13.36;100.00;99653.19;6110757;19;20011;-75
2024/04/13 06:30:31;;;;;;;9.40;4.88;;;;;;;13.52;100.00;99641.97;6110926;19;20023;-74
2024/04/13 06:32:31;;;;;;;7.40;4.50;;;;;;;13.69;100.00;99646.25;6110761;19;20002;-75
2024/04/13 06:34:31;;;;;;;5.95;4.75;;;;;;;13.81;100.00;99645.25;6110769;19;20014;-74
2024/04/13 06:36:32;;;;;;;6.35;4.05;;;;;;;13.98;100.00;99651.13;6109843;19;20011;-74
2024/04/13 06:38:32;;;;;;;9.32;4.20;;;;;;;14.10;100.00;99640.97;6110910;19;20014;-74
2024/04/13 06:40:35;;;;;;;7.75;4.00;;;;;;;14.20;100.00;99640.34;6086686;19;20011;-74
2024/04/13 06:42:35;;;;;;;5.80;4.40;;;;;;;14.30;100.00;99648.84;6108859;19;20577;-74
2024/04/13 06:44:36;;;;;;;6.13;3.85;;;;;;;14.49;100.00;99642.41;6094966;19;20014;-74
2024/04/13 06:46:36;;;;;;;5.32;3.97;;;;;;;14.60;100.00;99636.97;6108312;19;20066;-74
2024/04/13 06:48:36;;;;;;;6.90;4.28;;;;;;;14.72;100.00;99644.28;6109097;19;20011;-74
2024/04/13 06:50:37;;;;;;;8.00;4.15;;;;;;;14.72;100.00;99639.50;6107712;19;20007;-74
2024/04/13 06:52:37;;;;;;;5.18;4.20;;;;;;;14.74;100.00;99630.81;6110900;19;20249;-74
2024/04/13 06:54:37;;;;;;;7.15;3.50;;;;;;;14.81;100.00;99639.22;6108460;19;20504;-74
2024/04/13 06:56:39;;;;;;;7.22;3.85;;;;;;;14.83;100.00;99631.31;6109894;19;20076;-74
2024/04/13 06:58:39;;;;;;;6.57;3.97;;;;;;;14.85;100.00;99626.97;6110219;19;20010;-74
2024/04/13 07:00:39;;;;;;;6.97;4.35;;;;;;;14.91;100.00;99623.84;6109282;19;20007;-74
2024/04/13 07:02:40;;;;;;;6.07;3.60;;;;;;;14.97;100.00;99633.47;6110338;19;20011;-75
2024/04/13 07:04:40;;;;;;;8.20;3.72;;;;;;;14.99;100.00;99636.69;6107308;19;20336;-75
2024/04/13 07:06:41;;;;;;;7.07;3.30;;;;;;;14.95;100.00;99625.47;6110165;19;20014;-74
2024/04/13 07:08:43;;;;;;;5.47;3.45;;;;;;;15.01;100.00;99628.75;6109028;19;20385;-74
2024/04/13 07:10:43;;;;;;;5.22;3.60;;;;;;;15.00;100.00;99616.78;6108858;19;20013;-74
2024/04/13 07:12:44;;;;;;;6.65;3.97;;;;;;;15.00;100.00;99608.44;6109489;19;20006;-74
2024/04/13 07:14:44;;;;;;;7.65;3.67;;;;;;;15.03;100.00;99613.25;6106802;19;20498;-74
2024/04/13 07:16:44;;;;;;;4.60;3.50;;;;;;;15.06;100.00;99609.72;6108614;19;20070;-74
2024/04/13 07:18:46;;;;;;;8.63;3.80;;;;;;;15.05;100.00;99615.63;6108626;19;20054;-74
2024/04/13 07:20:47;;;;;;;6.13;3.60;;;;;;;15.06;100.00;99604.13;6109796;19;20455;-74
2024/04/13 07:22:47;;;;;;;5.25;3.35;;;;;;;15.06;100.00;99598.56;6092907;19;20009;-74
2024/04/13 07:24:47;;;;;;;5.68;3.30;;;;;;;15.10;100.00;99588.25;6108679;19;20178;-74
2024/04/13 07:26:48;;;;;;;8.02;3.97;;;;;;;15.16;100.00;99583.13;6108908;19;20085;-74
2024/04/13 07:28:48;;;;;;;5.50;3.55;;;;;;;15.25;100.00;99571.66;6108536;19;20011;-74
2024/04/13 07:30:48;;;;;;;8.00;3.65;;;;;;;15.34;100.00;99578.53;6107245;19;20011;-74
2024/04/13 07:32:48;;;;;;;7.72;3.35;;;;;;;15.46;100.00;99580.22;6109918;19;20102;-74
2024/04/13 07:34:49;;;;;;;6.55;3.60;;;;;;;15.53;100.00;99576.72;6106772;19;20065;-74
2024/04/13 07:36:49;;;;;;;3.38;3.00;;;;;;;15.60;100.00;99579.56;6108902;19;20070;-74
2024/04/13 07:38:50;;;;;;;3.75;2.55;;;;;;;15.72;100.00;99582.91;6103867;19;20427;-75
2024/04/13 07:40:50;;;;;;;6.85;2.92;;;;;;;15.77;100.00;99575.34;6101669;19;20053;-74
2024/04/13 07:42:50;;;;;;;3.63;2.90;;;;;;;15.84;100.00;99579.00;6099439;19;20044;-74
2024/04/13 07:44:51;;;;;;;3.35;2.70;;;;;;;15.96;100.00;99577.88;6099370;19;20026;-75
2024/04/13 07:46:52;;;;;;;6.80;2.90;;;;;;;16.01;100.00;99571.94;6099957;19;20374;-75
2024/04/13 07:48:53;;;;;;;3.50;2.53;;;;;;;16.12;100.00;99578.41;6099693;19;20014;-74
2024/04/13 07:50:53;;;;;;;3.65;2.40;;;;;;;16.21;100.00;99578.06;6099214;19;20431;-74
2024/04/13 07:52:53;;;;;;;4.57;2.70;;;;;;;16.25;100.00;99588.06;6098614;19;20003;-74
2024/04/13 07:54:53;;;;;;;5.43;2.72;;;;;;;16.37;100.00;99580.53;6100041;19;20397;-75
2024/04/13 07:56:54;;;;;;;5.53;2.90;;;;;;;16.40;100.00;99572.22;6099865;19;19999;-74
2024/04/13 07:58:54;;;;;;;4.80;2.85;;;;;;;16.58;100.00;99583.47;6098443;19;20519;-74
2024/04/13 08:00:55;;;;;;;3.75;2.53;;;;;;;16.65;100.00;99571.53;6100416;19;19994;-74
2024/04/13 08:02:55;;;;;;;3.15;2.85;;;;;;;16.74;100.00;99577.59;6096329;19;20364;-74
2024/04/13 08:04:56;;;;;;;5.78;2.75;;;;;;;16.79;100.00;99583.56;6100005;19;20006;-74
2024/04/13 08:06:56;;;;;;;5.55;2.70;;;;;;;16.90;100.00;99577.25;6099707;19;19999;-74
2024/04/13 08:08:57;;;;;;;6.28;2.78;;;;;;;16.96;100.00;99575.66;6097804;19;20013;-74
2024/04/13 08:10:57;;;;;;;4.70;3.08;;;;;;;17.02;100.00;99571.28;6099084;19;20033;-74
2024/04/13 08:12:58;;;;;;;6.03;2.60;;;;;;;17.10;100.00;99570.91;6098434;19;20411;-74
2024/04/13 08:14:58;;;;;;;4.25;2.50;;;;;;;17.18;100.00;99571.72;6099330;19;19999;-74
2024/04/13 08:16:58;;;;;;;6.53;3.05;;;;;;;17.25;100.00;99574.53;6099295;19;20058;-74
2024/04/13 08:18:59;;;;;;;5.75;3.30;;;;;;;17.27;100.00;99568.53;6096881;19;20017;-74
2024/04/13 08:20:59;;;;;;;5.45;2.65;;;;;;;17.36;100.00;99575.34;6099795;19;20369;-74
2024/04/13 08:23:00;;;;;;;4.20;2.40;;;;;;;17.50;100.00;99576.59;6099312;19;20490;-74
2024/04/13 08:25:01;;;;;;;5.90;2.50;;;;;;;17.54;100.00;99578.19;6099548;19;20033;-74
2024/04/13 08:27:01;;;;;;;3.15;2.38;;;;;;;17.58;100.00;99584.59;6099219;19;20372;-74
2024/04/13 08:29:01;;;;;;;5.00;3.00;;;;;;;17.66;100.00;99572.19;6097407;19;20456;-74
2024/04/13 08:31:05;;;;;;;2.88;2.45;;;;;;;17.80;100.00;99570.63;6097830;19;20002;-74
2024/04/13 08:33:05;;;;;;;4.40;2.53;;;;;;;17.94;100.00;99576.22;6099253;19;20011;-74
2024/04/13 08:35:06;;;;;;;4.43;2.72;;;;;;;17.98;100.00;99571.41;6098503;19;20526;-74
2024/04/13 08:37:06;;;;;;;5.60;3.08;;;;;;;17.92;100.00;99571.00;6098331;19;19995;-74
2024/04/13 08:39:11;;;;;;;4.22;3.00;;;;;;;17.94;100.00;99560.22;6094517;19;20010;-74
2024/04/13 08:41:17;;;;;;;4.30;2.30;;;;;;;17.99;100.00;99575.03;6103084;19;20024;-74
2024/04/13 08:43:18;;;;;;;6.20;2.20;;;;;;;18.07;100.00;99571.81;6105293;19;20003;-74
2024/04/13 08:45:18;;;;;;;4.40;2.30;;;;;;;18.14;100.00;99566.19;6106952;19;20042;-74
2024/04/13 08:47:19;;;;;;;4.35;2.50;;;;;;;18.23;100.00;99566.59;6105223;19;20637;-74
2024/04/13 08:49:21;;;;;;;6.28;2.00;;;;;;;18.25;100.00;99572.56;6103650;19;20025;-74
2024/04/13 08:51:22;;;;;;;2.83;2.13;;;;;;;18.16;100.00;99565.78;6106198;19;20006;-74
2024/04/13 08:53:27;;;;;;;5.90;2.35;;;;;;;18.16;100.00;99565.78;6106166;19;20014;-74
2024/04/13 08:55:28;;;;;;;5.40;2.55;;;;;;;18.19;100.00;99562.97;6105103;19;19998;-74
2024/04/13 08:57:31;;;;;;;5.82;2.85;;;;;;;18.32;100.00;99574.56;6103585;19;20010;-75
2024/04/13 08:59:33;;;;;;;6.85;2.40;;;;;;;18.35;100.00;99570.16;6104870;19;20038;-74
2024/04/13 09:01:33;;;;;;;5.28;2.30;;;;;;;18.39;100.00;99573.75;6106246;19;20010;-75
2024/04/13 09:03:34;;;;;;;4.90;2.53;;;;;;;18.39;100.00;99577.34;6105178;19;20002;-74
2024/04/13 09:05:34;;;;;;;3.65;2.45;;;;;;;18.46;100.00;99573.75;6106330;19;20033;-74
2024/04/13 09:07:36;;;;;;;5.32;2.55;;;;;;;18.52;100.00;99581.31;6105784;19;20008;-74
2024/04/13 09:09:39;;;;;;;5.00;2.80;;;;;;;18.60;100.00;99573.66;6106062;19;20078;-74
2024/04/13 09:11:39;;;;;;;4.20;2.42;;;;;;;18.65;100.00;99576.09;6105909;19;20006;-74
2024/04/13 09:13:40;;;;;;;4.07;2.42;;;;;;;18.57;100.00;99565.28;6106226;19;20536;-74
2024/04/13 09:15:43;;;;;;;5.20;2.83;;;;;;;18.64;100.00;99568.88;6106237;19;20002;-74
2024/04/13 09:17:43;;;;;;;5.03;2.95;;;;;;;18.70;100.00;99566.44;6106140;19;20102;-74
2024/04/13 09:19:46;;;;;;;3.83;2.13;;;;;;;18.78;100.00;99568.84;6105347;19;20003;-74
2024/04/13 09:21:48;;;;;;;5.05;2.38;;;;;;;18.89;100.00;99560.38;6106099;19;20015;-74